sensor_id;sensor_type;location;lat;lon;timestamp;P1;durP1;ratioP1;P2;durP2;ratioP2
76059;SDS011;64759;52.220;5.170;2023-03-01T00:01:24;14.75;;;9.73;;
76059;SDS011;64759;52.220;5.170;2023-03-01T00:03:52;19.23;;;12.93;;
76059;SDS011;64759;52.220;5.170;2023-03-01T00:06:19;20.58;;;11.45;;
76059;SDS011;64759;52.220;5.170;2023-03-01T00:08:45;16.52;;;10.40;;
76059;SDS011;64759;52.220;5.170;2023-03-01T00:11:12;13.82;;;9.65;;
76059;SDS011;64759;52.220;5.170;2023-03-01T00:13:43;17.13;;;10.50;;
76059;SDS011;64759;52.220;5.170;2023-03-01T00:16:10;14.82;;;10.25;;
76059;SDS011;64759;52.220;5.170;2023-03-01T00:18:38;14.75;;;10.00;;
76059;SDS011;64759;52.220;5.170;2023-03-01T00:21:04;15.57;;;9.93;;
76059;SDS011;64759;52.220;5.170;2023-03-01T00:23:30;15.82;;;9.90;;
76059;SDS011;64759;52.220;5.170;2023-03-01T00:25:56;19.45;;;10.93;;
76059;SDS011;64759;52.220;5.170;2023-03-01T00:28:21;17.02;;;10.40;;
76059;SDS011;64759;52.220;5.170;2023-03-01T00:30:46;14.93;;;10.57;;
76059;SDS011;64759;52.220;5.170;2023-03-01T00:33:12;13.70;;;10.55;;
76059;SDS011;64759;52.220;5.170;2023-03-01T00:35:38;17.17;;;10.77;;
76059;SDS011;64759;52.220;5.170;2023-03-01T00:38:04;16.50;;;11.20;;
76059;SDS011;64759;52.220;5.170;2023-03-01T00:40:30;17.40;;;11.23;;
76059;SDS011;64759;52.220;5.170;2023-03-01T00:42:57;17.52;;;11.50;;
76059;SDS011;64759;52.220;5.170;2023-03-01T00:45:23;16.30;;;10.75;;
76059;SDS011;64759;52.220;5.170;2023-03-01T00:47:49;14.15;;;9.63;;
76059;SDS011;64759;52.220;5.170;2023-03-01T00:50:15;14.10;;;10.80;;
76059;SDS011;64759;52.220;5.170;2023-03-01T00:52:41;20.42;;;12.65;;
76059;SDS011;64759;52.220;5.170;2023-03-01T00:55:07;18.98;;;11.30;;
76059;SDS011;64759;52.220;5.170;2023-03-01T00:57:33;17.67;;;12.18;;
76059;SDS011;64759;52.220;5.170;2023-03-01T00:59:58;16.92;;;11.45;;
76059;SDS011;64759;52.220;5.170;2023-03-01T01:02:24;16.63;;;11.45;;
76059;SDS011;64759;52.220;5.170;2023-03-01T01:04:50;17.63;;;12.27;;
76059;SDS011;64759;52.220;5.170;2023-03-01T01:07:15;21.58;;;12.73;;
76059;SDS011;64759;52.220;5.170;2023-03-01T01:09:41;16.42;;;12.68;;
76059;SDS011;64759;52.220;5.170;2023-03-01T01:12:07;15.68;;;12.60;;
76059;SDS011;64759;52.220;5.170;2023-03-01T01:14:33;17.45;;;12.35;;
76059;SDS011;64759;52.220;5.170;2023-03-01T01:16:59;22.52;;;11.93;;
76059;SDS011;64759;52.220;5.170;2023-03-01T01:19:24;24.95;;;13.98;;
76059;SDS011;64759;52.220;5.170;2023-03-01T01:21:50;19.35;;;13.60;;
76059;SDS011;64759;52.220;5.170;2023-03-01T01:24:17;22.20;;;13.55;;
76059;SDS011;64759;52.220;5.170;2023-03-01T01:26:44;15.63;;;12.25;;
76059;SDS011;64759;52.220;5.170;2023-03-01T01:29:11;17.13;;;12.57;;
76059;SDS011;64759;52.220;5.170;2023-03-01T01:31:36;16.80;;;12.60;;
76059;SDS011;64759;52.220;5.170;2023-03-01T01:34:04;20.15;;;13.57;;
76059;SDS011;64759;52.220;5.170;2023-03-01T01:36:32;18.85;;;11.98;;
76059;SDS011;64759;52.220;5.170;2023-03-01T01:38:58;18.70;;;12.85;;
76059;SDS011;64759;52.220;5.170;2023-03-01T01:41:24;19.58;;;13.00;;
76059;SDS011;64759;52.220;5.170;2023-03-01T01:47:05;19.70;;;12.05;;
76059;SDS011;64759;52.220;5.170;2023-03-01T01:52:52;19.40;;;11.95;;
76059;SDS011;64759;52.220;5.170;2023-03-01T01:55:18;15.32;;;12.27;;
76059;SDS011;64759;52.220;5.170;2023-03-01T01:57:48;16.77;;;12.55;;
76059;SDS011;64759;52.220;5.170;2023-03-01T02:00:18;17.30;;;12.77;;
76059;SDS011;64759;52.220;5.170;2023-03-01T02:02:46;18.42;;;12.35;;
76059;SDS011;64759;52.220;5.170;2023-03-01T02:07:44;19.60;;;12.88;;
76059;SDS011;64759;52.220;5.170;2023-03-01T02:10:11;14.65;;;11.55;;
76059;SDS011;64759;52.220;5.170;2023-03-01T02:12:37;19.23;;;12.82;;
76059;SDS011;64759;52.220;5.170;2023-03-01T02:15:04;14.88;;;11.48;;
76059;SDS011;64759;52.220;5.170;2023-03-01T02:17:30;18.10;;;12.05;;
76059;SDS011;64759;52.220;5.170;2023-03-01T02:22:32;17.15;;;12.02;;
76059;SDS011;64759;52.220;5.170;2023-03-01T02:25:12;16.67;;;12.27;;
76059;SDS011;64759;52.220;5.170;2023-03-01T02:30:27;15.85;;;12.38;;
76059;SDS011;64759;52.220;5.170;2023-03-01T02:32:54;16.02;;;11.23;;
76059;SDS011;64759;52.220;5.170;2023-03-01T02:35:28;20.48;;;12.70;;
76059;SDS011;64759;52.220;5.170;2023-03-01T02:37:57;19.65;;;13.10;;
76059;SDS011;64759;52.220;5.170;2023-03-01T02:40:25;18.55;;;13.23;;
76059;SDS011;64759;52.220;5.170;2023-03-01T02:42:56;19.60;;;13.48;;
76059;SDS011;64759;52.220;5.170;2023-03-01T02:45:25;16.63;;;12.95;;
76059;SDS011;64759;52.220;5.170;2023-03-01T02:47:55;18.75;;;13.05;;
76059;SDS011;64759;52.220;5.170;2023-03-01T02:52:56;19.15;;;13.45;;
76059;SDS011;64759;52.220;5.170;2023-03-01T02:55:26;20.70;;;13.55;;
76059;SDS011;64759;52.220;5.170;2023-03-01T02:57:53;19.02;;;12.68;;
76059;SDS011;64759;52.220;5.170;2023-03-01T03:00:21;19.60;;;13.13;;
76059;SDS011;64759;52.220;5.170;2023-03-01T03:02:51;16.03;;;13.37;;
76059;SDS011;64759;52.220;5.170;2023-03-01T03:05:20;19.20;;;13.27;;
76059;SDS011;64759;52.220;5.170;2023-03-01T03:07:51;18.77;;;12.38;;
76059;SDS011;64759;52.220;5.170;2023-03-01T03:12:51;17.55;;;12.55;;
76059;SDS011;64759;52.220;5.170;2023-03-01T03:15:30;18.42;;;13.25;;
76059;SDS011;64759;52.220;5.170;2023-03-01T03:17:57;20.88;;;14.02;;
76059;SDS011;64759;52.220;5.170;2023-03-01T03:20:24;16.88;;;13.15;;
76059;SDS011;64759;52.220;5.170;2023-03-01T03:22:53;17.92;;;13.18;;
76059;SDS011;64759;52.220;5.170;2023-03-01T03:25:21;19.95;;;13.10;;
76059;SDS011;64759;52.220;5.170;2023-03-01T03:27:49;18.33;;;12.88;;
76059;SDS011;64759;52.220;5.170;2023-03-01T03:30:22;17.27;;;12.38;;
76059;SDS011;64759;52.220;5.170;2023-03-01T03:32:49;20.23;;;12.88;;
76059;SDS011;64759;52.220;5.170;2023-03-01T03:37:47;17.63;;;11.32;;
76059;SDS011;64759;52.220;5.170;2023-03-01T03:43:05;18.17;;;11.50;;
76059;SDS011;64759;52.220;5.170;2023-03-01T03:45:35;18.85;;;12.43;;
76059;SDS011;64759;52.220;5.170;2023-03-01T03:48:01;17.83;;;11.32;;
76059;SDS011;64759;52.220;5.170;2023-03-01T03:50:28;23.50;;;12.80;;
76059;SDS011;64759;52.220;5.170;2023-03-01T03:52:54;14.52;;;11.90;;
76059;SDS011;64759;52.220;5.170;2023-03-01T03:55:19;16.10;;;11.40;;
76059;SDS011;64759;52.220;5.170;2023-03-01T03:57:45;16.88;;;12.02;;
76059;SDS011;64759;52.220;5.170;2023-03-01T04:00:20;17.80;;;12.57;;
76059;SDS011;64759;52.220;5.170;2023-03-01T04:02:47;19.42;;;13.10;;
76059;SDS011;64759;52.220;5.170;2023-03-01T04:05:14;22.17;;;13.82;;
76059;SDS011;64759;52.220;5.170;2023-03-01T04:07:41;21.30;;;13.73;;
76059;SDS011;64759;52.220;5.170;2023-03-01T04:10:11;19.63;;;13.27;;
76059;SDS011;64759;52.220;5.170;2023-03-01T04:12:39;19.88;;;13.60;;
76059;SDS011;64759;52.220;5.170;2023-03-01T04:15:05;18.90;;;13.40;;
76059;SDS011;64759;52.220;5.170;2023-03-01T04:17:41;20.83;;;12.70;;
76059;SDS011;64759;52.220;5.170;2023-03-01T04:20:09;21.45;;;13.65;;
76059;SDS011;64759;52.220;5.170;2023-03-01T04:22:38;18.33;;;12.75;;
76059;SDS011;64759;52.220;5.170;2023-03-01T04:25:05;16.35;;;11.73;;
76059;SDS011;64759;52.220;5.170;2023-03-01T04:27:35;17.30;;;12.65;;
76059;SDS011;64759;52.220;5.170;2023-03-01T04:30:01;15.35;;;11.18;;
76059;SDS011;64759;52.220;5.170;2023-03-01T04:32:30;17.60;;;12.23;;
76059;SDS011;64759;52.220;5.170;2023-03-01T04:34:56;16.48;;;11.15;;
76059;SDS011;64759;52.220;5.170;2023-03-01T04:37:22;16.00;;;11.77;;
76059;SDS011;64759;52.220;5.170;2023-03-01T04:39:49;20.65;;;12.63;;
76059;SDS011;64759;52.220;5.170;2023-03-01T04:42:15;17.15;;;11.57;;
76059;SDS011;64759;52.220;5.170;2023-03-01T04:44:41;19.52;;;12.02;;
76059;SDS011;64759;52.220;5.170;2023-03-01T04:47:07;14.95;;;11.10;;
76059;SDS011;64759;52.220;5.170;2023-03-01T04:49:33;14.30;;;10.70;;
76059;SDS011;64759;52.220;5.170;2023-03-01T04:51:58;14.25;;;10.77;;
76059;SDS011;64759;52.220;5.170;2023-03-01T04:54:30;16.35;;;11.30;;
76059;SDS011;64759;52.220;5.170;2023-03-01T04:56:57;13.43;;;10.35;;
76059;SDS011;64759;52.220;5.170;2023-03-01T04:59:23;15.45;;;11.00;;
76059;SDS011;64759;52.220;5.170;2023-03-01T05:01:49;16.00;;;11.48;;
76059;SDS011;64759;52.220;5.170;2023-03-01T05:04:16;16.35;;;11.45;;
76059;SDS011;64759;52.220;5.170;2023-03-01T05:06:41;19.63;;;13.15;;
76059;SDS011;64759;52.220;5.170;2023-03-01T05:09:07;16.73;;;11.75;;
76059;SDS011;64759;52.220;5.170;2023-03-01T05:11:32;16.25;;;12.05;;
76059;SDS011;64759;52.220;5.170;2023-03-01T05:14:04;18.20;;;12.05;;
76059;SDS011;64759;52.220;5.170;2023-03-01T05:16:31;21.75;;;13.43;;
76059;SDS011;64759;52.220;5.170;2023-03-01T05:18:57;21.38;;;12.50;;
76059;SDS011;64759;52.220;5.170;2023-03-01T05:21:23;20.05;;;13.02;;
76059;SDS011;64759;52.220;5.170;2023-03-01T05:23:49;20.58;;;13.25;;
76059;SDS011;64759;52.220;5.170;2023-03-01T05:26:15;19.40;;;13.45;;
76059;SDS011;64759;52.220;5.170;2023-03-01T05:28:42;20.70;;;14.13;;
76059;SDS011;64759;52.220;5.170;2023-03-01T05:31:08;20.88;;;13.73;;
76059;SDS011;64759;52.220;5.170;2023-03-01T05:33:38;18.02;;;13.27;;
76059;SDS011;64759;52.220;5.170;2023-03-01T05:36:05;21.00;;;14.32;;
76059;SDS011;64759;52.220;5.170;2023-03-01T05:38:32;19.63;;;14.38;;
76059;SDS011;64759;52.220;5.170;2023-03-01T05:40:57;22.60;;;14.60;;
76059;SDS011;64759;52.220;5.170;2023-03-01T05:43:23;20.13;;;14.40;;
76059;SDS011;64759;52.220;5.170;2023-03-01T05:45:49;24.60;;;14.57;;
76059;SDS011;64759;52.220;5.170;2023-03-01T05:48:15;19.70;;;14.45;;
76059;SDS011;64759;52.220;5.170;2023-03-01T05:50:44;19.95;;;13.35;;
76059;SDS011;64759;52.220;5.170;2023-03-01T05:53:15;24.30;;;15.00;;
76059;SDS011;64759;52.220;5.170;2023-03-01T05:55:42;17.95;;;13.40;;
76059;SDS011;64759;52.220;5.170;2023-03-01T05:58:11;22.25;;;14.63;;
76059;SDS011;64759;52.220;5.170;2023-03-01T06:00:42;24.73;;;16.23;;
76059;SDS011;64759;52.220;5.170;2023-03-01T06:03:09;24.08;;;16.25;;
76059;SDS011;64759;52.220;5.170;2023-03-01T06:05:36;24.98;;;16.60;;
76059;SDS011;64759;52.220;5.170;2023-03-01T06:08:02;20.63;;;14.82;;
76059;SDS011;64759;52.220;5.170;2023-03-01T06:10:28;25.20;;;16.38;;
76059;SDS011;64759;52.220;5.170;2023-03-01T06:12:54;23.85;;;15.70;;
76059;SDS011;64759;52.220;5.170;2023-03-01T06:15:20;26.40;;;16.83;;
76059;SDS011;64759;52.220;5.170;2023-03-01T06:17:46;28.77;;;18.80;;
76059;SDS011;64759;52.220;5.170;2023-03-01T06:22:42;17.90;;;13.07;;
76059;SDS011;64759;52.220;5.170;2023-03-01T06:25:08;22.40;;;15.75;;
76059;SDS011;64759;52.220;5.170;2023-03-01T06:27:35;24.00;;;17.27;;
76059;SDS011;64759;52.220;5.170;2023-03-01T06:30:01;32.00;;;22.10;;
76059;SDS011;64759;52.220;5.170;2023-03-01T06:32:26;30.17;;;19.08;;
76059;SDS011;64759;52.220;5.170;2023-03-01T06:34:51;28.83;;;18.38;;
76059;SDS011;64759;52.220;5.170;2023-03-01T06:37:17;25.08;;;17.83;;
76059;SDS011;64759;52.220;5.170;2023-03-01T06:39:42;26.75;;;16.80;;
76059;SDS011;64759;52.220;5.170;2023-03-01T06:42:08;25.92;;;18.75;;
76059;SDS011;64759;52.220;5.170;2023-03-01T06:44:35;25.02;;;17.42;;
76059;SDS011;64759;52.220;5.170;2023-03-01T06:47:01;26.52;;;18.88;;
76059;SDS011;64759;52.220;5.170;2023-03-01T06:49:26;23.90;;;17.65;;
76059;SDS011;64759;52.220;5.170;2023-03-01T06:51:52;26.63;;;17.95;;
76059;SDS011;64759;52.220;5.170;2023-03-01T06:54:17;26.55;;;18.10;;
76059;SDS011;64759;52.220;5.170;2023-03-01T06:56:43;22.95;;;17.48;;
76059;SDS011;64759;52.220;5.170;2023-03-01T06:59:11;29.58;;;18.58;;
76059;SDS011;64759;52.220;5.170;2023-03-01T07:01:36;23.02;;;17.92;;
76059;SDS011;64759;52.220;5.170;2023-03-01T07:04:02;27.88;;;17.85;;
76059;SDS011;64759;52.220;5.170;2023-03-01T07:06:27;28.65;;;18.38;;
76059;SDS011;64759;52.220;5.170;2023-03-01T07:08:53;27.45;;;19.00;;
76059;SDS011;64759;52.220;5.170;2023-03-01T07:11:18;30.60;;;19.90;;
76059;SDS011;64759;52.220;5.170;2023-03-01T07:13:43;37.60;;;22.00;;
76059;SDS011;64759;52.220;5.170;2023-03-01T07:16:09;29.73;;;19.70;;
76059;SDS011;64759;52.220;5.170;2023-03-01T07:18:34;29.05;;;19.08;;
76059;SDS011;64759;52.220;5.170;2023-03-01T07:21:03;32.00;;;21.33;;
76059;SDS011;64759;52.220;5.170;2023-03-01T07:23:33;33.20;;;21.08;;
76059;SDS011;64759;52.220;5.170;2023-03-01T07:25:58;32.67;;;21.00;;
76059;SDS011;64759;52.220;5.170;2023-03-01T07:28:24;30.75;;;21.73;;
76059;SDS011;64759;52.220;5.170;2023-03-01T07:30:49;32.28;;;22.17;;
76059;SDS011;64759;52.220;5.170;2023-03-01T07:33:17;35.47;;;22.52;;
76059;SDS011;64759;52.220;5.170;2023-03-01T07:35:42;34.90;;;23.42;;
76059;SDS011;64759;52.220;5.170;2023-03-01T07:38:08;30.60;;;21.95;;
76059;SDS011;64759;52.220;5.170;2023-03-01T07:40:33;30.08;;;20.77;;
76059;SDS011;64759;52.220;5.170;2023-03-01T07:42:59;32.13;;;22.33;;
76059;SDS011;64759;52.220;5.170;2023-03-01T07:45:24;34.58;;;20.70;;
76059;SDS011;64759;52.220;5.170;2023-03-01T07:47:51;34.55;;;21.50;;
76059;SDS011;64759;52.220;5.170;2023-03-01T07:50:17;34.90;;;21.17;;
76059;SDS011;64759;52.220;5.170;2023-03-01T07:52:45;36.90;;;19.95;;
76059;SDS011;64759;52.220;5.170;2023-03-01T07:55:11;30.92;;;20.15;;
76059;SDS011;64759;52.220;5.170;2023-03-01T07:57:37;28.17;;;18.20;;
76059;SDS011;64759;52.220;5.170;2023-03-01T08:00:03;31.95;;;20.40;;
76059;SDS011;64759;52.220;5.170;2023-03-01T08:02:37;26.58;;;17.83;;
76059;SDS011;64759;52.220;5.170;2023-03-01T08:05:02;25.63;;;18.27;;
76059;SDS011;64759;52.220;5.170;2023-03-01T08:07:28;29.73;;;17.80;;
76059;SDS011;64759;52.220;5.170;2023-03-01T08:09:53;24.27;;;16.70;;
76059;SDS011;64759;52.220;5.170;2023-03-01T08:12:19;22.98;;;16.58;;
76059;SDS011;64759;52.220;5.170;2023-03-01T08:14:44;24.67;;;16.58;;
76059;SDS011;64759;52.220;5.170;2023-03-01T08:17:10;26.52;;;17.13;;
76059;SDS011;64759;52.220;5.170;2023-03-01T08:19:35;24.38;;;16.60;;
76059;SDS011;64759;52.220;5.170;2023-03-01T08:22:01;23.98;;;17.98;;
76059;SDS011;64759;52.220;5.170;2023-03-01T08:24:27;22.30;;;16.83;;
76059;SDS011;64759;52.220;5.170;2023-03-01T08:26:53;25.42;;;16.95;;
76059;SDS011;64759;52.220;5.170;2023-03-01T08:29:18;24.45;;;15.75;;
76059;SDS011;64759;52.220;5.170;2023-03-01T08:31:44;23.42;;;13.57;;
76059;SDS011;64759;52.220;5.170;2023-03-01T08:34:11;18.73;;;12.75;;
76059;SDS011;64759;52.220;5.170;2023-03-01T08:36:38;18.83;;;12.57;;
76059;SDS011;64759;52.220;5.170;2023-03-01T08:39:06;20.23;;;13.50;;
76059;SDS011;64759;52.220;5.170;2023-03-01T08:41:32;19.88;;;13.88;;
76059;SDS011;64759;52.220;5.170;2023-03-01T08:43:57;24.40;;;14.52;;
76059;SDS011;64759;52.220;5.170;2023-03-01T08:46:27;19.83;;;13.73;;
76059;SDS011;64759;52.220;5.170;2023-03-01T08:48:53;16.60;;;12.18;;
76059;SDS011;64759;52.220;5.170;2023-03-01T08:51:20;14.20;;;10.50;;
76059;SDS011;64759;52.220;5.170;2023-03-01T08:53:47;14.07;;;10.35;;
76059;SDS011;64759;52.220;5.170;2023-03-01T08:56:12;17.80;;;11.43;;
76059;SDS011;64759;52.220;5.170;2023-03-01T08:58:39;18.60;;;12.43;;
76059;SDS011;64759;52.220;5.170;2023-03-01T09:01:11;19.25;;;10.73;;
76059;SDS011;64759;52.220;5.170;2023-03-01T09:03:38;20.45;;;11.27;;
76059;SDS011;64759;52.220;5.170;2023-03-01T09:06:04;17.85;;;11.13;;
76059;SDS011;64759;52.220;5.170;2023-03-01T09:08:34;17.05;;;10.73;;
76059;SDS011;64759;52.220;5.170;2023-03-01T09:11:04;13.88;;;9.93;;
76059;SDS011;64759;52.220;5.170;2023-03-01T09:13:31;13.73;;;10.20;;
76059;SDS011;64759;52.220;5.170;2023-03-01T09:15:57;10.68;;;9.18;;
76059;SDS011;64759;52.220;5.170;2023-03-01T09:18:23;16.33;;;9.77;;
76059;SDS011;64759;52.220;5.170;2023-03-01T09:20:49;10.65;;;8.80;;
76059;SDS011;64759;52.220;5.170;2023-03-01T09:23:14;11.43;;;8.23;;
76059;SDS011;64759;52.220;5.170;2023-03-01T09:25:40;11.73;;;8.93;;
76059;SDS011;64759;52.220;5.170;2023-03-01T09:28:08;8.55;;;7.00;;
76059;SDS011;64759;52.220;5.170;2023-03-01T09:30:36;6.97;;;5.70;;
76059;SDS011;64759;52.220;5.170;2023-03-01T09:33:01;9.85;;;6.30;;
76059;SDS011;64759;52.220;5.170;2023-03-01T09:35:26;8.68;;;5.90;;
76059;SDS011;64759;52.220;5.170;2023-03-01T09:37:53;10.98;;;7.00;;
76059;SDS011;64759;52.220;5.170;2023-03-01T09:40:20;13.70;;;8.55;;
76059;SDS011;64759;52.220;5.170;2023-03-01T09:45:26;15.52;;;9.85;;
76059;SDS011;64759;52.220;5.170;2023-03-01T09:47:58;17.55;;;11.95;;
76059;SDS011;64759;52.220;5.170;2023-03-01T09:50:26;14.13;;;10.18;;
76059;SDS011;64759;52.220;5.170;2023-03-01T09:53:01;13.85;;;9.50;;
76059;SDS011;64759;52.220;5.170;2023-03-01T09:55:37;13.20;;;9.80;;
76059;SDS011;64759;52.220;5.170;2023-03-01T09:58:06;11.65;;;9.15;;
76059;SDS011;64759;52.220;5.170;2023-03-01T10:00:43;12.40;;;8.18;;
76059;SDS011;64759;52.220;5.170;2023-03-01T10:03:28;10.02;;;6.97;;
76059;SDS011;64759;52.220;5.170;2023-03-01T10:06:01;13.43;;;7.35;;
76059;SDS011;64759;52.220;5.170;2023-03-01T10:11:26;8.27;;;5.78;;
76059;SDS011;64759;52.220;5.170;2023-03-01T10:14:06;11.23;;;6.05;;
76059;SDS011;64759;52.220;5.170;2023-03-01T10:16:46;8.43;;;4.97;;
76059;SDS011;64759;52.220;5.170;2023-03-01T10:22:19;6.35;;;5.28;;
76059;SDS011;64759;52.220;5.170;2023-03-01T10:24:49;8.98;;;5.30;;
76059;SDS011;64759;52.220;5.170;2023-03-01T10:29:57;8.88;;;5.00;;
76059;SDS011;64759;52.220;5.170;2023-03-01T10:32:25;7.85;;;5.55;;
76059;SDS011;64759;52.220;5.170;2023-03-01T10:34:51;8.82;;;4.43;;
76059;SDS011;64759;52.220;5.170;2023-03-01T10:37:17;10.32;;;4.90;;
76059;SDS011;64759;52.220;5.170;2023-03-01T10:40:06;5.28;;;4.70;;
76059;SDS011;64759;52.220;5.170;2023-03-01T10:42:46;6.50;;;4.95;;
76059;SDS011;64759;52.220;5.170;2023-03-01T10:45:30;6.32;;;4.45;;
76059;SDS011;64759;52.220;5.170;2023-03-01T10:50:36;5.68;;;4.35;;
76059;SDS011;64759;52.220;5.170;2023-03-01T10:53:04;8.68;;;5.20;;
76059;SDS011;64759;52.220;5.170;2023-03-01T10:55:41;8.35;;;4.30;;
76059;SDS011;64759;52.220;5.170;2023-03-01T10:58:20;6.85;;;4.03;;
76059;SDS011;64759;52.220;5.170;2023-03-01T11:03:21;5.85;;;4.15;;
76059;SDS011;64759;52.220;5.170;2023-03-01T11:08:45;5.03;;;4.03;;
76059;SDS011;64759;52.220;5.170;2023-03-01T11:11:32;8.10;;;5.40;;
76059;SDS011;64759;52.220;5.170;2023-03-01T11:14:00;8.60;;;4.50;;
76059;SDS011;64759;52.220;5.170;2023-03-01T11:16:41;7.03;;;4.47;;
76059;SDS011;64759;52.220;5.170;2023-03-01T11:21:34;7.35;;;4.38;;
76059;SDS011;64759;52.220;5.170;2023-03-01T11:24:03;6.97;;;4.30;;
76059;SDS011;64759;52.220;5.170;2023-03-01T11:26:34;6.07;;;4.63;;
76059;SDS011;64759;52.220;5.170;2023-03-01T11:29:04;7.32;;;4.63;;
76059;SDS011;64759;52.220;5.170;2023-03-01T11:31:37;6.20;;;4.20;;
76059;SDS011;64759;52.220;5.170;2023-03-01T11:34:19;9.80;;;4.57;;
76059;SDS011;64759;52.220;5.170;2023-03-01T11:37:10;9.55;;;4.65;;
76059;SDS011;64759;52.220;5.170;2023-03-01T11:39:51;7.82;;;5.25;;
76059;SDS011;64759;52.220;5.170;2023-03-01T11:45:06;7.10;;;4.05;;
76059;SDS011;64759;52.220;5.170;2023-03-01T11:50:41;7.22;;;4.53;;
76059;SDS011;64759;52.220;5.170;2023-03-01T11:56:27;7.97;;;5.07;;
76059;SDS011;64759;52.220;5.170;2023-03-01T12:10:17;7.60;;;4.43;;
76059;SDS011;64759;52.220;5.170;2023-03-01T12:15:42;6.38;;;4.70;;
76059;SDS011;64759;52.220;5.170;2023-03-01T12:20:57;11.63;;;5.47;;
76059;SDS011;64759;52.220;5.170;2023-03-01T12:26:34;7.47;;;5.10;;
76059;SDS011;64759;52.220;5.170;2023-03-01T12:29:08;6.72;;;5.00;;
76059;SDS011;64759;52.220;5.170;2023-03-01T12:32:06;7.00;;;4.38;;
76059;SDS011;64759;52.220;5.170;2023-03-01T12:40:20;6.78;;;4.18;;
76059;SDS011;64759;52.220;5.170;2023-03-01T12:42:55;5.93;;;4.18;;
76059;SDS011;64759;52.220;5.170;2023-03-01T12:45:43;8.35;;;4.30;;
76059;SDS011;64759;52.220;5.170;2023-03-01T12:51:07;7.13;;;4.32;;
76059;SDS011;64759;52.220;5.170;2023-03-01T12:53:36;10.70;;;4.40;;
76059;SDS011;64759;52.220;5.170;2023-03-01T12:56:07;8.25;;;4.20;;
76059;SDS011;64759;52.220;5.170;2023-03-01T13:04:28;4.70;;;3.65;;
76059;SDS011;64759;52.220;5.170;2023-03-01T13:10:02;8.45;;;4.45;;
76059;SDS011;64759;52.220;5.170;2023-03-01T13:12:50;5.72;;;4.18;;
76059;SDS011;64759;52.220;5.170;2023-03-01T13:46:48;7.35;;;3.90;;
76059;SDS011;64759;52.220;5.170;2023-03-01T13:49:16;7.03;;;4.55;;
76059;SDS011;64759;52.220;5.170;2023-03-01T13:51:48;5.05;;;4.30;;
76059;SDS011;64759;52.220;5.170;2023-03-01T13:54:16;5.50;;;4.05;;
76059;SDS011;64759;52.220;5.170;2023-03-01T13:56:51;6.82;;;4.18;;
76059;SDS011;64759;52.220;5.170;2023-03-01T13:59:19;4.93;;;3.40;;
76059;SDS011;64759;52.220;5.170;2023-03-01T14:01:51;5.18;;;4.00;;
76059;SDS011;64759;52.220;5.170;2023-03-01T14:06:45;9.38;;;4.20;;
76059;SDS011;64759;52.220;5.170;2023-03-01T14:09:24;4.68;;;3.45;;
76059;SDS011;64759;52.220;5.170;2023-03-01T14:22:43;6.28;;;3.95;;
76059;SDS011;64759;52.220;5.170;2023-03-01T14:25:17;10.57;;;4.10;;
76059;SDS011;64759;52.220;5.170;2023-03-01T14:27:45;9.75;;;4.47;;
76059;SDS011;64759;52.220;5.170;2023-03-01T14:30:19;7.65;;;4.07;;
76059;SDS011;64759;52.220;5.170;2023-03-01T14:32:52;6.80;;;4.32;;
76059;SDS011;64759;52.220;5.170;2023-03-01T14:35:20;7.03;;;4.40;;
76059;SDS011;64759;52.220;5.170;2023-03-01T14:37:48;5.72;;;3.63;;
76059;SDS011;64759;52.220;5.170;2023-03-01T14:40:22;10.18;;;3.65;;
76059;SDS011;64759;52.220;5.170;2023-03-01T14:42:51;10.60;;;4.47;;
76059;SDS011;64759;52.220;5.170;2023-03-01T14:45:18;7.50;;;3.85;;
76059;SDS011;64759;52.220;5.170;2023-03-01T14:47:43;8.32;;;4.60;;
76059;SDS011;64759;52.220;5.170;2023-03-01T14:50:29;8.40;;;4.13;;
76059;SDS011;64759;52.220;5.170;2023-03-01T14:53:00;5.68;;;3.97;;
76059;SDS011;64759;52.220;5.170;2023-03-01T14:55:30;10.40;;;3.80;;
76059;SDS011;64759;52.220;5.170;2023-03-01T15:00:25;6.47;;;3.63;;
76059;SDS011;64759;52.220;5.170;2023-03-01T15:02:53;6.35;;;3.75;;
76059;SDS011;64759;52.220;5.170;2023-03-01T15:05:30;7.22;;;4.68;;
76059;SDS011;64759;52.220;5.170;2023-03-01T15:07:57;6.95;;;4.47;;
76059;SDS011;64759;52.220;5.170;2023-03-01T15:10:28;6.88;;;4.32;;
76059;SDS011;64759;52.220;5.170;2023-03-01T15:13:12;7.57;;;4.18;;
76059;SDS011;64759;52.220;5.170;2023-03-01T15:15:45;7.25;;;5.18;;
76059;SDS011;64759;52.220;5.170;2023-03-01T15:20:47;9.27;;;5.25;;
76059;SDS011;64759;52.220;5.170;2023-03-01T15:23:47;6.00;;;4.07;;
76059;SDS011;64759;52.220;5.170;2023-03-01T15:26:05;11.85;;;4.57;;
76059;SDS011;64759;52.220;5.170;2023-03-01T15:28:34;10.82;;;4.82;;
76059;SDS011;64759;52.220;5.170;2023-03-01T15:31:24;8.20;;;4.53;;
76059;SDS011;64759;52.220;5.170;2023-03-01T15:34:10;5.50;;;4.15;;
76059;SDS011;64759;52.220;5.170;2023-03-01T15:36:47;10.30;;;4.25;;
76059;SDS011;64759;52.220;5.170;2023-03-01T15:39:49;6.65;;;4.47;;
76059;SDS011;64759;52.220;5.170;2023-03-01T15:44:50;10.55;;;4.40;;
76059;SDS011;64759;52.220;5.170;2023-03-01T15:47:40;7.60;;;4.68;;
76059;SDS011;64759;52.220;5.170;2023-03-01T15:50:18;7.53;;;4.57;;
76059;SDS011;64759;52.220;5.170;2023-03-01T15:52:45;6.03;;;4.43;;
76059;SDS011;64759;52.220;5.170;2023-03-01T15:55:15;12.40;;;4.93;;
76059;SDS011;64759;52.220;5.170;2023-03-01T15:57:41;7.18;;;4.72;;
76059;SDS011;64759;52.220;5.170;2023-03-01T16:00:12;8.45;;;6.03;;
76059;SDS011;64759;52.220;5.170;2023-03-01T16:02:40;9.68;;;6.35;;
76059;SDS011;64759;52.220;5.170;2023-03-01T16:07:50;8.55;;;5.53;;
76059;SDS011;64759;52.220;5.170;2023-03-01T16:10:16;8.98;;;5.15;;
76059;SDS011;64759;52.220;5.170;2023-03-01T16:12:42;10.45;;;5.55;;
76059;SDS011;64759;52.220;5.170;2023-03-01T16:15:13;9.82;;;5.32;;
76059;SDS011;64759;52.220;5.170;2023-03-01T16:17:43;10.65;;;5.75;;
76059;SDS011;64759;52.220;5.170;2023-03-01T16:20:10;10.68;;;5.70;;
76059;SDS011;64759;52.220;5.170;2023-03-01T16:22:36;12.63;;;6.03;;
76059;SDS011;64759;52.220;5.170;2023-03-01T16:25:01;9.02;;;5.05;;
76059;SDS011;64759;52.220;5.170;2023-03-01T16:27:27;9.07;;;5.45;;
76059;SDS011;64759;52.220;5.170;2023-03-01T16:29:53;9.13;;;5.40;;
76059;SDS011;64759;52.220;5.170;2023-03-01T16:32:18;11.13;;;5.40;;
76059;SDS011;64759;52.220;5.170;2023-03-01T16:34:44;12.35;;;5.90;;
76059;SDS011;64759;52.220;5.170;2023-03-01T16:37:09;10.55;;;5.43;;
76059;SDS011;64759;52.220;5.170;2023-03-01T16:39:35;8.68;;;5.22;;
76059;SDS011;64759;52.220;5.170;2023-03-01T16:42:03;8.70;;;5.10;;
76059;SDS011;64759;52.220;5.170;2023-03-01T16:44:28;7.35;;;5.10;;
76059;SDS011;64759;52.220;5.170;2023-03-01T16:46:54;6.75;;;4.93;;
76059;SDS011;64759;52.220;5.170;2023-03-01T16:49:19;8.35;;;5.15;;
76059;SDS011;64759;52.220;5.170;2023-03-01T16:51:45;7.68;;;5.55;;
76059;SDS011;64759;52.220;5.170;2023-03-01T16:54:10;6.78;;;4.75;;
76059;SDS011;64759;52.220;5.170;2023-03-01T16:56:36;11.38;;;5.95;;
76059;SDS011;64759;52.220;5.170;2023-03-01T16:59:03;9.27;;;5.85;;
76059;SDS011;64759;52.220;5.170;2023-03-01T17:01:30;11.63;;;5.97;;
76059;SDS011;64759;52.220;5.170;2023-03-01T17:04:00;17.15;;;10.60;;
76059;SDS011;64759;52.220;5.170;2023-03-01T17:06:25;12.18;;;7.13;;
76059;SDS011;64759;52.220;5.170;2023-03-01T17:08:52;9.73;;;6.65;;
76059;SDS011;64759;52.220;5.170;2023-03-01T17:11:18;12.38;;;7.07;;